createdAt,value
2023-05-25T00:02:25.015Z,9.78
2023-05-25T00:04:52.419Z,10.85
2023-05-25T00:07:19.210Z,11.24
2023-05-25T00:09:46.711Z,10.63
2023-05-25T00:12:14.371Z,10.88
2023-05-25T00:14:41.161Z,10.07
2023-05-25T00:17:10.683Z,11.31
2023-05-25T00:19:38.265Z,11.01
2023-05-25T00:22:05.155Z,11.11
2023-05-25T00:24:31.964Z,10.30
2023-05-25T00:26:58.913Z,11.47
2023-05-25T00:29:26.206Z,11.07
2023-05-25T00:31:53.465Z,10.87
2023-05-25T00:34:20.196Z,10.64
2023-05-25T00:36:50.001Z,11.13
2023-05-25T00:39:17.786Z,11.02
2023-05-25T00:41:45.379Z,11.21
2023-05-25T00:44:14.849Z,10.39
2023-05-25T00:46:46.186Z,11.42
2023-05-25T00:49:14.147Z,11.20
2023-05-25T00:51:41.209Z,11.39
2023-05-25T00:54:07.866Z,11.16
2023-05-25T00:56:38.051Z,11.17
2023-05-25T00:59:06.895Z,11.26
2023-05-25T01:01:40.355Z,10.78
2023-05-25T01:04:10.358Z,11.07
2023-05-25T01:06:37.710Z,11.19
2023-05-25T01:09:05.051Z,9.61
2023-05-25T01:11:39.963Z,10.33
2023-05-25T01:14:06.474Z,11.20
2023-05-25T01:16:33.191Z,10.77
2023-05-25T01:18:59.974Z,10.53
2023-05-25T01:21:42.344Z,10.47
2023-05-25T01:24:22.747Z,10.97
2023-05-25T01:27:03.831Z,10.77
2023-05-25T01:29:30.479Z,10.31
2023-05-25T01:31:57.147Z,10.47
2023-05-25T01:34:23.884Z,9.31
2023-05-25T01:36:50.996Z,10.18
2023-05-25T01:39:22.048Z,10.47
2023-05-25T01:41:48.810Z,10.00
2023-05-25T01:44:15.806Z,10.65
2023-05-25T01:46:42.497Z,10.15
2023-05-25T01:49:27.584Z,10.74
2023-05-25T01:51:57.139Z,10.73
2023-05-25T01:54:28.840Z,10.24
2023-05-25T01:56:56.430Z,10.10
2023-05-25T01:59:23.077Z,10.13
2023-05-25T02:01:52.783Z,10.70
2023-05-25T02:04:19.899Z,10.16
2023-05-25T02:06:49.041Z,10.57
2023-05-25T02:09:16.161Z,10.28
2023-05-25T02:11:42.790Z,9.70
2023-05-25T02:14:11.014Z,10.18
2023-05-25T02:16:38.031Z,10.45
2023-05-25T02:19:04.880Z,10.45
2023-05-25T02:21:31.537Z,9.21
2023-05-25T02:23:58.196Z,10.10
2023-05-25T02:26:24.840Z,10.25
2023-05-25T02:28:51.729Z,10.74
2023-05-25T02:31:18.919Z,10.56
2023-05-25T02:33:45.565Z,10.50
2023-05-25T02:36:12.221Z,10.68
2023-05-25T02:38:38.901Z,10.10
2023-05-25T02:41:05.605Z,10.49
2023-05-25T02:43:32.735Z,10.50
2023-05-25T02:45:59.384Z,10.43
2023-05-25T02:48:26.228Z,10.19
2023-05-25T02:50:52.891Z,10.73
2023-05-25T02:53:19.581Z,10.73
2023-05-25T02:55:46.447Z,10.75
2023-05-25T02:58:13.315Z,10.99
2023-05-25T03:00:40.194Z,10.99
2023-05-25T03:03:06.938Z,10.69
2023-05-25T03:05:35.534Z,10.65
2023-05-25T03:08:02.220Z,11.11
2023-05-25T03:10:28.854Z,11.07
2023-05-25T03:12:55.578Z,11.24
2023-05-25T03:15:23.258Z,9.64
2023-05-25T03:17:50.519Z,10.83
2023-05-25T03:20:17.232Z,10.89
2023-05-25T03:22:43.958Z,11.21
2023-05-25T03:25:13.594Z,11.14
2023-05-25T03:27:40.573Z,11.01
2023-05-25T03:30:08.108Z,11.03
2023-05-25T03:32:34.751Z,11.14
2023-05-25T03:35:01.391Z,10.99
2023-05-25T03:37:28.141Z,11.10
2023-05-25T03:39:54.854Z,11.17
2023-05-25T03:42:21.494Z,10.79
2023-05-25T03:44:48.166Z,9.79
2023-05-25T03:47:14.785Z,10.94
2023-05-25T03:49:41.617Z,10.92
2023-05-25T03:52:08.654Z,11.17
2023-05-25T03:54:35.602Z,10.77
2023-05-25T03:57:09.794Z,11.11
2023-05-25T03:59:36.505Z,10.66
2023-05-25T04:02:03.203Z,10.94
2023-05-25T04:04:30.124Z,11.04
2023-05-25T04:06:57.009Z,11.00
2023-05-25T04:09:23.644Z,10.99
2023-05-25T04:12:13.357Z,11.45
2023-05-25T04:14:40.001Z,10.99
2023-05-25T04:17:06.732Z,11.00
2023-05-25T04:19:33.377Z,10.97
2023-05-25T04:22:00.068Z,11.06
2023-05-25T04:24:27.649Z,11.20
2023-05-25T04:26:56.916Z,11.42
2023-05-25T04:29:23.604Z,11.20
2023-05-25T04:31:51.759Z,10.93
2023-05-25T04:34:18.517Z,11.13
2023-05-25T04:36:45.220Z,11.08
2023-05-25T04:39:11.913Z,11.36
2023-05-25T04:41:39.332Z,11.30
2023-05-25T04:44:09.524Z,10.90
2023-05-25T04:46:37.558Z,9.87
2023-05-25T04:49:05.722Z,10.88
2023-05-25T04:51:32.743Z,11.12
2023-05-25T04:53:59.893Z,11.31
2023-05-25T04:56:27.013Z,10.73
2023-05-25T04:58:53.731Z,10.47
2023-05-25T05:01:20.750Z,10.64
2023-05-25T05:03:47.651Z,11.00
2023-05-25T05:06:14.415Z,10.69
2023-05-25T05:08:41.885Z,10.91
2023-05-25T05:11:08.554Z,10.94
2023-05-25T05:13:35.247Z,10.93
2023-05-25T05:16:01.920Z,10.99
2023-05-25T05:18:29.221Z,11.15
2023-05-25T05:20:56.126Z,10.89
2023-05-25T05:23:22.825Z,10.88
2023-05-25T05:25:49.489Z,10.81
2023-05-25T05:28:16.132Z,10.78
2023-05-25T05:30:44.211Z,11.04
2023-05-25T05:33:10.965Z,10.94
2023-05-25T05:35:37.732Z,10.87
2023-05-25T05:38:05.279Z,10.68
2023-05-25T05:40:31.943Z,11.25
2023-05-25T05:42:58.573Z,11.29
2023-05-25T05:45:25.588Z,11.28
2023-05-25T05:47:52.342Z,10.99
2023-05-25T05:50:19.087Z,10.97
2023-05-25T05:52:45.856Z,11.26
2023-05-25T05:55:12.562Z,11.05
2023-05-25T05:57:39.221Z,11.14
2023-05-25T06:00:07.141Z,11.23
2023-05-25T06:02:34.026Z,11.45
2023-05-25T06:05:01.643Z,10.99
2023-05-25T06:07:29.126Z,11.36
2023-05-25T06:09:56.221Z,11.21
2023-05-25T06:12:22.972Z,11.30
2023-05-25T06:14:52.180Z,11.45
2023-05-25T06:17:19.304Z,11.39
2023-05-25T06:19:46.158Z,11.31
2023-05-25T06:22:12.804Z,11.18
2023-05-25T06:24:39.452Z,11.29
2023-05-25T06:27:06.287Z,11.42
2023-05-25T06:29:33.040Z,10.98
2023-05-25T06:31:59.816Z,11.12
2023-05-25T06:34:26.650Z,11.07
2023-05-25T06:36:53.313Z,11.03
2023-05-25T06:39:20.384Z,10.29
2023-05-25T06:41:47.034Z,10.94
2023-05-25T06:44:13.688Z,10.71
2023-05-25T06:46:40.414Z,11.31
2023-05-25T06:49:07.118Z,10.71
2023-05-25T06:51:33.862Z,11.45
2023-05-25T06:54:00.597Z,11.21
2023-05-25T06:56:28.027Z,10.89
2023-05-25T06:58:54.976Z,10.80
2023-05-25T07:01:21.703Z,10.48
2023-05-25T07:03:48.367Z,10.54
2023-05-25T07:06:17.074Z,10.26
2023-05-25T07:08:43.747Z,10.56
2023-05-25T07:11:12.540Z,10.87
2023-05-25T07:13:39.397Z,11.00
2023-05-25T07:16:06.297Z,10.06
2023-05-25T07:18:33.493Z,10.64
2023-05-25T07:21:01.265Z,11.06
2023-05-25T07:23:27.973Z,10.89
2023-05-25T07:25:54.838Z,10.95
2023-05-25T07:28:21.470Z,10.20
2023-05-25T07:30:48.271Z,11.00
2023-05-25T07:33:14.959Z,10.77
2023-05-25T07:35:41.791Z,10.52
2023-05-25T07:38:09.414Z,10.79
2023-05-25T07:40:37.140Z,10.73
2023-05-25T07:43:08.148Z,10.58
2023-05-25T07:45:35.110Z,10.31
2023-05-25T07:48:01.860Z,11.08
2023-05-25T07:50:29.440Z,11.18
2023-05-25T07:52:59.860Z,11.53
2023-05-25T07:55:26.989Z,11.30
2023-05-25T07:57:53.676Z,10.40
2023-05-25T08:00:20.806Z,10.72
2023-05-25T08:02:47.592Z,10.80
2023-05-25T08:05:14.450Z,11.42
2023-05-25T08:07:42.814Z,11.13
2023-05-25T08:10:10.105Z,11.16
2023-05-25T08:12:47.649Z,11.26
2023-05-25T08:15:15.177Z,11.04
2023-05-25T08:17:42.221Z,11.68
2023-05-25T08:20:09.475Z,11.72
2023-05-25T08:22:36.260Z,11.68
2023-05-25T08:25:03.954Z,11.20
2023-05-25T08:27:32.265Z,11.66
2023-05-25T08:30:00.607Z,11.10
2023-05-25T08:32:27.300Z,11.31
2023-05-25T08:34:54.022Z,12.12
2023-05-25T08:37:22.726Z,11.52
2023-05-25T08:39:49.363Z,12.20
2023-05-25T08:42:16.038Z,12.00
2023-05-25T08:44:43.016Z,12.29
2023-05-25T08:47:09.697Z,12.10
2023-05-25T08:49:38.428Z,11.90
2023-05-25T08:52:06.018Z,11.55
2023-05-25T08:54:36.648Z,12.04
2023-05-25T08:57:12.287Z,11.89
2023-05-25T08:59:44.898Z,12.04
2023-05-25T09:02:14.665Z,12.20
2023-05-25T09:04:42.955Z,11.78
2023-05-25T09:07:11.147Z,11.42
2023-05-25T09:09:39.003Z,11.92
2023-05-25T09:12:09.022Z,11.38
2023-05-25T09:14:37.893Z,11.92
2023-05-25T09:17:04.842Z,11.40
2023-05-25T09:19:31.543Z,11.95
2023-05-25T09:22:10.725Z,12.21
2023-05-25T09:24:44.224Z,11.71
2023-05-25T09:27:11.411Z,10.50
2023-05-25T09:29:38.384Z,11.51
2023-05-25T09:32:06.806Z,12.34
2023-05-25T09:34:36.404Z,12.26
2023-05-25T09:37:21.623Z,12.44
2023-05-25T09:39:48.322Z,12.52
2023-05-25T09:42:15.015Z,12.07
2023-05-25T09:44:42.976Z,12.21
2023-05-25T09:47:09.792Z,12.60
2023-05-25T09:49:36.628Z,12.56
2023-05-25T09:52:03.307Z,12.48
2023-05-25T09:54:30.003Z,12.81
2023-05-25T09:56:56.822Z,12.74
2023-05-25T09:59:23.639Z,12.62
2023-05-25T10:01:53.794Z,12.67
2023-05-25T10:04:21.054Z,13.04
2023-05-25T10:06:49.867Z,12.38
2023-05-25T10:09:17.860Z,12.46
2023-05-25T10:11:44.988Z,12.40
2023-05-25T10:14:12.554Z,13.14
2023-05-25T10:16:39.652Z,12.94
2023-05-25T10:19:22.112Z,12.98
2023-05-25T10:21:56.155Z,13.54
2023-05-25T10:24:35.208Z,13.28
2023-05-25T10:29:51.960Z,13.10
2023-05-25T10:32:18.730Z,13.76
2023-05-25T10:34:46.176Z,13.91
2023-05-25T10:37:12.988Z,13.80
2023-05-25T10:39:39.635Z,13.76
2023-05-25T10:42:06.682Z,13.99
2023-05-25T10:44:33.417Z,13.61
2023-05-25T10:47:00.150Z,14.17
2023-05-25T10:49:33.832Z,14.24
2023-05-25T10:52:00.866Z,14.31
2023-05-25T10:54:31.982Z,14.32
2023-05-25T10:57:12.003Z,14.71
2023-05-25T10:59:42.578Z,14.35
2023-05-25T11:02:09.568Z,14.74
2023-05-25T11:04:37.845Z,14.77
2023-05-25T11:07:08.066Z,14.84
2023-05-25T11:09:43.590Z,14.55
2023-05-25T11:12:22.605Z,15.10
2023-05-25T11:15:17.054Z,15.55
2023-05-25T11:18:02.846Z,15.17
2023-05-25T11:20:30.260Z,15.52
2023-05-25T11:22:57.586Z,14.84
2023-05-25T11:25:40.442Z,15.18
2023-05-25T11:28:07.753Z,15.45
2023-05-25T11:30:34.594Z,15.44
2023-05-25T11:33:04.741Z,15.23
2023-05-25T11:35:33.975Z,15.45
2023-05-25T11:38:01.288Z,15.54
2023-05-25T11:40:31.384Z,15.26
2023-05-25T11:43:00.636Z,15.15
2023-05-25T11:45:33.551Z,15.54
2023-05-25T11:48:00.440Z,15.97
2023-05-25T11:50:28.347Z,15.47
2023-05-25T11:52:55.170Z,15.97
2023-05-25T11:55:21.963Z,15.93
2023-05-25T11:57:55.740Z,15.98
2023-05-25T12:00:27.449Z,15.71
2023-05-25T12:02:54.430Z,15.69
2023-05-25T12:05:21.432Z,15.63
2023-05-25T12:07:48.238Z,15.54
2023-05-25T12:10:18.319Z,15.85
2023-05-25T12:12:45.609Z,15.91
2023-05-25T12:15:15.158Z,15.58
2023-05-25T12:17:43.030Z,15.67
2023-05-25T12:20:13.540Z,15.76
2023-05-25T12:22:41.871Z,14.74
2023-05-25T12:25:12.317Z,15.50
2023-05-25T12:27:40.377Z,15.52
2023-05-25T12:30:11.736Z,15.88
2023-05-25T12:32:54.909Z,15.82
2023-05-25T12:35:21.922Z,15.67
2023-05-25T12:37:48.574Z,16.25
2023-05-25T12:40:23.355Z,16.11
2023-05-25T12:42:57.240Z,16.39
2023-05-25T12:45:24.487Z,15.86
2023-05-25T12:47:51.474Z,15.72
2023-05-25T12:50:19.451Z,15.96
2023-05-25T12:52:46.876Z,15.89
2023-05-25T12:55:22.640Z,16.23
2023-05-25T12:57:55.231Z,15.71
2023-05-25T13:00:26.796Z,14.94
2023-05-25T13:02:54.087Z,16.06
2023-05-25T13:05:27.870Z,15.78
2023-05-25T13:07:56.763Z,15.96
2023-05-25T13:10:24.055Z,15.34
2023-05-25T13:12:51.959Z,15.68
2023-05-25T13:15:21.217Z,16.10
2023-05-25T13:17:48.668Z,16.19
2023-05-25T13:20:15.668Z,15.88
2023-05-25T13:22:43.642Z,16.26
2023-05-25T13:25:11.229Z,16.73
2023-05-25T13:27:38.114Z,15.69
2023-05-25T13:30:08.175Z,16.52
2023-05-25T13:32:34.946Z,16.27
2023-05-25T13:35:01.809Z,15.25
2023-05-25T13:37:28.764Z,16.55
2023-05-25T13:39:56.214Z,16.26
2023-05-25T13:42:23.180Z,16.04
2023-05-25T13:44:50.404Z,15.90
2023-05-25T13:47:17.143Z,14.74
2023-05-25T13:49:43.996Z,16.02
2023-05-25T13:52:11.137Z,16.24
2023-05-25T13:54:37.804Z,16.04
2023-05-25T13:57:04.478Z,16.02
2023-05-25T13:59:31.350Z,15.59
2023-05-25T14:01:58.141Z,15.46
2023-05-25T14:04:26.772Z,15.51
2023-05-25T14:06:56.127Z,15.98
2023-05-25T14:09:23.426Z,15.38
2023-05-25T14:11:50.147Z,15.90
2023-05-25T14:14:30.131Z,14.25
2023-05-25T14:16:57.899Z,15.64
2023-05-25T14:19:24.697Z,15.91
2023-05-25T14:22:03.848Z,14.81
2023-05-25T14:24:38.184Z,15.56
2023-05-25T14:27:05.041Z,15.76
2023-05-25T14:29:31.690Z,15.76
2023-05-25T14:31:58.505Z,15.58
2023-05-25T14:34:25.386Z,15.46
2023-05-25T14:36:52.007Z,15.34
2023-05-25T14:39:18.681Z,15.16
2023-05-25T14:41:45.402Z,15.42
2023-05-25T14:44:12.067Z,15.36
2023-05-25T14:46:38.856Z,15.39
2023-05-25T14:49:05.703Z,14.88
2023-05-25T14:51:32.383Z,14.25
2023-05-25T14:54:00.762Z,15.25
2023-05-25T14:56:31.061Z,14.80
2023-05-25T14:58:58.116Z,14.86
2023-05-25T15:01:25.675Z,15.32
2023-05-25T15:03:52.807Z,15.24
2023-05-25T15:06:19.712Z,15.04
2023-05-25T15:08:46.409Z,14.88
2023-05-25T15:11:13.291Z,15.03
2023-05-25T15:13:40.952Z,14.81
2023-05-25T15:16:11.428Z,13.74
2023-05-25T15:18:38.161Z,14.80
2023-05-25T15:21:04.838Z,14.56
2023-05-25T15:23:32.117Z,14.58
2023-05-25T15:26:03.344Z,14.64
2023-05-25T15:28:30.907Z,14.34
2023-05-25T15:30:58.563Z,14.16
2023-05-25T15:33:36.082Z,14.45
2023-05-25T15:36:06.654Z,14.41
2023-05-25T15:38:33.342Z,13.94
2023-05-25T15:41:00.180Z,13.67
2023-05-25T15:43:27.108Z,14.06
2023-05-25T15:45:53.818Z,14.17
2023-05-25T15:48:20.548Z,14.50
2023-05-25T15:50:47.436Z,14.45
2023-05-25T15:53:14.393Z,14.49
2023-05-25T15:55:41.241Z,13.96
2023-05-25T15:58:07.891Z,13.11
2023-05-25T16:00:34.623Z,14.35
2023-05-25T16:03:01.421Z,14.40
2023-05-25T16:05:29.876Z,13.83
2023-05-25T16:07:56.584Z,13.99
2023-05-25T16:10:23.210Z,13.97
2023-05-25T16:12:49.905Z,13.46
2023-05-25T16:15:16.966Z,13.96
2023-05-25T16:17:43.613Z,13.76
2023-05-25T16:20:10.529Z,12.87
2023-05-25T16:22:37.547Z,13.33
2023-05-25T16:25:05.015Z,13.84
2023-05-25T16:27:31.800Z,13.85
2023-05-25T16:29:58.527Z,13.73
2023-05-25T16:32:25.432Z,13.86
2023-05-25T16:34:55.203Z,13.72
2023-05-25T16:37:21.911Z,13.60
2023-05-25T16:39:48.723Z,13.83
2023-05-25T16:42:15.389Z,13.40
2023-05-25T16:44:42.085Z,13.31
2023-05-25T16:47:08.905Z,13.43
2023-05-25T16:49:35.633Z,13.39
2023-05-25T16:52:05.232Z,13.03
2023-05-25T16:54:31.873Z,13.01
2023-05-25T16:56:58.700Z,13.21
2023-05-25T16:59:25.353Z,12.67
2023-05-25T17:01:52.061Z,12.85
2023-05-25T17:04:18.842Z,11.60
2023-05-25T17:06:45.565Z,12.92
2023-05-25T17:09:12.210Z,12.91
2023-05-25T17:11:38.939Z,12.92
2023-05-25T17:14:06.181Z,13.04
2023-05-25T17:16:33.031Z,13.03
2023-05-25T17:18:59.712Z,12.90
2023-05-25T17:21:27.058Z,13.04
2023-05-25T17:23:53.732Z,12.44
2023-05-25T17:26:20.382Z,12.18
2023-05-25T17:28:47.116Z,13.02
2023-05-25T17:31:13.975Z,12.68
2023-05-25T17:33:40.649Z,12.52
2023-05-25T17:36:07.592Z,13.06
2023-05-25T17:38:37.012Z,11.06
2023-05-25T17:41:03.686Z,12.54
2023-05-25T17:43:30.553Z,12.78
2023-05-25T17:48:26.003Z,12.48
2023-05-25T17:50:52.657Z,11.40
2023-05-25T17:53:19.411Z,12.76
2023-05-25T17:55:46.296Z,12.44
2023-05-25T17:58:13.245Z,12.64
2023-05-25T18:00:40.076Z,12.63
2023-05-25T18:03:06.871Z,11.93
2023-05-25T18:05:33.586Z,12.53
2023-05-25T18:08:00.506Z,12.31
2023-05-25T18:10:27.216Z,12.25
2023-05-25T18:12:54.265Z,12.46
2023-05-25T18:15:21.816Z,12.32
2023-05-25T18:17:48.699Z,12.26
2023-05-25T18:20:15.797Z,12.19
2023-05-25T18:22:42.733Z,12.39
2023-05-25T18:25:09.642Z,12.25
2023-05-25T18:27:36.404Z,12.49
2023-05-25T18:30:03.108Z,12.43
2023-05-25T18:32:29.811Z,12.25
2023-05-25T18:34:57.340Z,12.24
2023-05-25T18:37:24.681Z,12.37
2023-05-25T18:39:51.449Z,11.49
2023-05-25T18:42:18.140Z,12.26
2023-05-25T18:44:44.927Z,12.24
2023-05-25T18:47:12.019Z,11.86
2023-05-25T18:49:38.996Z,11.84
2023-05-25T18:52:08.238Z,12.03
2023-05-25T18:54:34.939Z,12.00
2023-05-25T18:57:01.733Z,11.55
2023-05-25T18:59:28.806Z,11.89
2023-05-25T19:01:56.652Z,11.64
2023-05-25T19:04:23.463Z,11.96
2023-05-25T19:06:50.311Z,11.39
2023-05-25T19:09:17.480Z,11.86
2023-05-25T19:11:44.210Z,11.65
2023-05-25T19:14:10.956Z,11.93
2023-05-25T19:16:37.784Z,12.13
2023-05-25T19:19:04.716Z,12.34
2023-05-25T19:21:31.487Z,12.61
2023-05-25T19:23:58.296Z,12.27
2023-05-25T19:26:24.948Z,12.59
2023-05-25T19:28:51.626Z,12.28
2023-05-25T19:31:18.623Z,12.26
2023-05-25T19:33:45.551Z,12.10
2023-05-25T19:36:12.220Z,12.26
2023-05-25T19:38:41.816Z,12.37
2023-05-25T19:41:09.110Z,12.53
2023-05-25T19:43:36.238Z,11.98
2023-05-25T19:46:03.246Z,12.07
2023-05-25T19:48:30.237Z,12.59
2023-05-25T19:50:57.780Z,11.76
2023-05-25T19:53:24.723Z,12.38
2023-05-25T19:55:51.631Z,11.82
2023-05-25T19:58:18.320Z,11.73
2023-05-25T20:00:45.085Z,12.36
2023-05-25T20:03:12.049Z,12.18
2023-05-25T20:05:39.376Z,12.14
2023-05-25T20:08:06.168Z,12.18
2023-05-25T20:10:39.476Z,12.61
2023-05-25T20:13:07.528Z,12.24
2023-05-25T20:15:34.618Z,12.29
2023-05-25T20:18:02.326Z,12.67
2023-05-25T20:20:29.188Z,11.95
2023-05-25T20:23:04.191Z,11.68
2023-05-25T20:25:30.777Z,12.63
2023-05-25T20:27:57.397Z,12.24
2023-05-25T20:30:24.213Z,12.21
2023-05-25T20:32:50.979Z,12.46
2023-05-25T20:35:17.794Z,12.62
2023-05-25T20:37:44.830Z,12.38
2023-05-25T20:40:11.715Z,12.12
2023-05-25T20:42:38.382Z,12.24
2023-05-25T20:45:05.469Z,12.16
2023-05-25T20:47:32.223Z,12.02
2023-05-25T20:49:58.906Z,11.87
2023-05-25T20:52:25.919Z,12.61
2023-05-25T20:54:52.621Z,12.21
2023-05-25T20:57:19.388Z,12.37
2023-05-25T20:59:46.497Z,12.24
2023-05-25T21:02:13.511Z,12.58
2023-05-25T21:04:40.322Z,12.06
2023-05-25T21:07:07.354Z,12.30
2023-05-25T21:09:34.253Z,12.42
2023-05-25T21:12:02.157Z,11.91
2023-05-25T21:14:29.820Z,11.88
2023-05-25T21:16:56.909Z,12.21
2023-05-25T21:19:24.646Z,12.27
2023-05-25T21:21:51.870Z,12.15
2023-05-25T21:24:18.879Z,12.28
2023-05-25T21:26:45.615Z,12.32
2023-05-25T21:29:12.323Z,12.19
2023-05-25T21:31:39.211Z,12.04
2023-05-25T21:34:05.968Z,12.35
2023-05-25T21:36:32.762Z,12.20
2023-05-25T21:38:59.501Z,12.26
2023-05-25T21:41:27.295Z,11.93
2023-05-25T21:43:53.943Z,12.38
2023-05-25T21:46:20.646Z,12.36
2023-05-25T21:48:47.290Z,12.42
2023-05-25T21:51:14.094Z,12.38
2023-05-25T21:53:40.851Z,11.69
2023-05-25T21:56:10.135Z,12.35
2023-05-25T21:58:38.139Z,12.47
2023-05-25T22:01:06.306Z,12.35
2023-05-25T22:03:34.330Z,12.10
2023-05-25T22:06:01.919Z,12.28
2023-05-25T22:08:28.774Z,12.18
2023-05-25T22:10:55.943Z,12.08
2023-05-25T22:13:22.852Z,11.96
2023-05-25T22:15:49.797Z,11.67
2023-05-25T22:18:16.802Z,12.10
2023-05-25T22:20:43.566Z,12.45
2023-05-25T22:23:11.643Z,12.19
2023-05-25T22:25:38.504Z,12.62
2023-05-25T22:28:05.308Z,12.51
2023-05-25T22:30:32.286Z,11.80
2023-05-25T22:32:59.296Z,12.44
2023-05-25T22:35:26.167Z,10.60
2023-05-25T22:37:53.105Z,12.58
2023-05-25T22:40:20.108Z,12.78
2023-05-25T22:42:50.500Z,12.64
2023-05-25T22:45:18.345Z,12.51
2023-05-25T22:47:45.414Z,12.32
2023-05-25T22:50:12.654Z,12.50
2023-05-25T22:52:41.214Z,12.56
2023-05-25T22:55:09.079Z,12.38
2023-05-25T22:57:36.102Z,12.40
2023-05-25T23:00:04.703Z,12.69
2023-05-25T23:02:31.709Z,12.63
2023-05-25T23:04:58.717Z,12.34
2023-05-25T23:07:25.763Z,12.12
2023-05-25T23:09:53.162Z,12.54
2023-05-25T23:12:20.158Z,12.55
2023-05-25T23:14:47.172Z,12.50
2023-05-25T23:17:14.343Z,11.43
2023-05-25T23:19:41.417Z,12.38
2023-05-25T23:22:08.348Z,12.59
2023-05-25T23:24:35.361Z,12.20
2023-05-25T23:27:02.972Z,12.70
2023-05-25T23:29:30.117Z,12.37
2023-05-25T23:31:57.172Z,12.56
2023-05-25T23:34:24.146Z,12.79
2023-05-25T23:36:54.169Z,12.82
2023-05-25T23:39:21.836Z,12.51
2023-05-25T23:41:48.720Z,12.04
2023-05-25T23:44:15.955Z,12.47
2023-05-25T23:46:42.876Z,12.80
2023-05-25T23:49:09.714Z,12.29
2023-05-25T23:51:36.763Z,12.24
2023-05-25T23:54:03.861Z,12.17
2023-05-25T23:56:32.769Z,12.59
2023-05-25T23:58:59.865Z,12.40
